sensor_id;sensor_type;location;lat;lon;timestamp;temperature;humidity
39453;DHT22;25154;-33.684;151.102;2023-02-18T00:03:38;29.40;99.90
39453;DHT22;25154;-33.684;151.102;2023-02-18T00:08:43;29.70;99.90
39453;DHT22;25154;-33.684;151.102;2023-02-18T00:13:53;29.80;99.90
39453;DHT22;25154;-33.684;151.102;2023-02-18T00:18:57;30.00;99.90
39453;DHT22;25154;-33.684;151.102;2023-02-18T00:24:00;30.40;99.90
39453;DHT22;25154;-33.684;151.102;2023-02-18T00:29:02;30.70;99.90
39453;DHT22;25154;-33.684;151.102;2023-02-18T00:34:05;31.00;99.90
39453;DHT22;25154;-33.684;151.102;2023-02-18T00:39:09;31.30;99.90
39453;DHT22;25154;-33.684;151.102;2023-02-18T00:44:12;31.60;99.90
39453;DHT22;25154;-33.684;151.102;2023-02-18T00:49:15;31.80;99.90
39453;DHT22;25154;-33.684;151.102;2023-02-18T00:54:17;32.30;99.90
39453;DHT22;25154;-33.684;151.102;2023-02-18T00:59:20;32.50;99.90
39453;DHT22;25154;-33.684;151.102;2023-02-18T01:04:22;32.80;99.90
39453;DHT22;25154;-33.684;151.102;2023-02-18T01:09:25;33.20;99.90
39453;DHT22;25154;-33.684;151.102;2023-02-18T01:14:27;33.50;99.90
39453;DHT22;25154;-33.684;151.102;2023-02-18T01:19:29;34.00;99.90
39453;DHT22;25154;-33.684;151.102;2023-02-18T01:24:33;34.20;99.10
39453;DHT22;25154;-33.684;151.102;2023-02-18T01:29:36;34.40;99.60
39453;DHT22;25154;-33.684;151.102;2023-02-18T01:34:38;35.10;98.60
39453;DHT22;25154;-33.684;151.102;2023-02-18T01:39:41;35.30;98.70
39453;DHT22;25154;-33.684;151.102;2023-02-18T01:44:45;35.40;98.00
39453;DHT22;25154;-33.684;151.102;2023-02-18T01:49:50;35.60;97.50
39453;DHT22;25154;-33.684;151.102;2023-02-18T01:54:56;35.90;96.40
39453;DHT22;25154;-33.684;151.102;2023-02-18T02:00:05;36.30;97.20
39453;DHT22;25154;-33.684;151.102;2023-02-18T02:05:08;36.40;95.70
39453;DHT22;25154;-33.684;151.102;2023-02-18T02:10:13;36.80;95.00
39453;DHT22;25154;-33.684;151.102;2023-02-18T02:20:41;37.10;93.80
39453;DHT22;25154;-33.684;151.102;2023-02-18T02:31:54;37.60;93.20
39453;DHT22;25154;-33.684;151.102;2023-02-18T02:37:18;37.70;92.70
39453;DHT22;25154;-33.684;151.102;2023-02-18T02:42:39;37.80;94.40
39453;DHT22;25154;-33.684;151.102;2023-02-18T02:48:03;38.10;92.10
39453;DHT22;25154;-33.684;151.102;2023-02-18T02:53:22;38.10;92.30
39453;DHT22;25154;-33.684;151.102;2023-02-18T02:58:25;38.00;92.80
39453;DHT22;25154;-33.684;151.102;2023-02-18T03:19:48;38.20;96.20
39453;DHT22;25154;-33.684;151.102;2023-02-18T03:24:56;38.30;95.70
39453;DHT22;25154;-33.684;151.102;2023-02-18T03:30:15;38.30;94.80
39453;DHT22;25154;-33.684;151.102;2023-02-18T03:35:18;38.30;95.50
39453;DHT22;25154;-33.684;151.102;2023-02-18T03:40:21;38.50;93.60
39453;DHT22;25154;-33.684;151.102;2023-02-18T03:45:24;39.10;95.00
39453;DHT22;25154;-33.684;151.102;2023-02-18T03:50:27;39.90;93.40
39453;DHT22;25154;-33.684;151.102;2023-02-18T03:55:29;39.50;94.10
39453;DHT22;25154;-33.684;151.102;2023-02-18T04:00:32;39.80;93.80
39453;DHT22;25154;-33.684;151.102;2023-02-18T04:05:34;40.50;92.80
39453;DHT22;25154;-33.684;151.102;2023-02-18T04:10:38;41.10;93.10
39453;DHT22;25154;-33.684;151.102;2023-02-18T04:15:40;41.20;92.60
39453;DHT22;25154;-33.684;151.102;2023-02-18T04:20:43;39.90;93.20
39453;DHT22;25154;-33.684;151.102;2023-02-18T04:25:46;38.40;94.10
39453;DHT22;25154;-33.684;151.102;2023-02-18T04:30:49;38.40;95.10
39453;DHT22;25154;-33.684;151.102;2023-02-18T04:35:51;39.60;94.80
39453;DHT22;25154;-33.684;151.102;2023-02-18T04:40:53;39.40;95.10
39453;DHT22;25154;-33.684;151.102;2023-02-18T04:45:56;39.50;94.50
39453;DHT22;25154;-33.684;151.102;2023-02-18T04:50:58;41.10;94.50
39453;DHT22;25154;-33.684;151.102;2023-02-18T04:56:00;41.90;92.90
39453;DHT22;25154;-33.684;151.102;2023-02-18T05:01:04;41.80;92.90
39453;DHT22;25154;-33.684;151.102;2023-02-18T05:06:06;39.30;93.80
39453;DHT22;25154;-33.684;151.102;2023-02-18T05:11:09;36.80;95.90
39453;DHT22;25154;-33.684;151.102;2023-02-18T05:16:11;34.90;97.90
39453;DHT22;25154;-33.684;151.102;2023-02-18T05:21:14;33.60;99.90
39453;DHT22;25154;-33.684;151.102;2023-02-18T05:26:16;32.60;99.90
39453;DHT22;25154;-33.684;151.102;2023-02-18T05:31:19;31.90;99.90
39453;DHT22;25154;-33.684;151.102;2023-02-18T05:36:21;31.40;99.90
39453;DHT22;25154;-33.684;151.102;2023-02-18T05:41:24;31.00;99.90
39453;DHT22;25154;-33.684;151.102;2023-02-18T05:46:26;30.70;99.90
39453;DHT22;25154;-33.684;151.102;2023-02-18T05:51:28;30.10;99.90
39453;DHT22;25154;-33.684;151.102;2023-02-18T05:56:31;29.50;99.90
39453;DHT22;25154;-33.684;151.102;2023-02-18T06:01:33;29.10;99.90
39453;DHT22;25154;-33.684;151.102;2023-02-18T06:06:36;28.90;99.90
39453;DHT22;25154;-33.684;151.102;2023-02-18T06:11:38;28.60;99.90
39453;DHT22;25154;-33.684;151.102;2023-02-18T06:16:41;28.30;99.90
39453;DHT22;25154;-33.684;151.102;2023-02-18T06:21:43;27.90;99.90
39453;DHT22;25154;-33.684;151.102;2023-02-18T06:26:45;27.70;99.90
39453;DHT22;25154;-33.684;151.102;2023-02-18T06:31:48;27.70;99.90
39453;DHT22;25154;-33.684;151.102;2023-02-18T06:36:50;27.60;99.90
39453;DHT22;25154;-33.684;151.102;2023-02-18T06:41:53;27.80;99.90
39453;DHT22;25154;-33.684;151.102;2023-02-18T06:46:55;28.20;99.90
39453;DHT22;25154;-33.684;151.102;2023-02-18T06:51:57;31.40;99.90
39453;DHT22;25154;-33.684;151.102;2023-02-18T06:57:00;33.70;99.30
39453;DHT22;25154;-33.684;151.102;2023-02-18T07:02:02;34.90;97.70
39453;DHT22;25154;-33.684;151.102;2023-02-18T07:07:05;35.20;96.50
39453;DHT22;25154;-33.684;151.102;2023-02-18T07:12:07;34.60;96.70
39453;DHT22;25154;-33.684;151.102;2023-02-18T07:17:09;33.50;97.80
39453;DHT22;25154;-33.684;151.102;2023-02-18T07:22:12;33.30;97.50
39453;DHT22;25154;-33.684;151.102;2023-02-18T07:27:14;32.70;96.60
39453;DHT22;25154;-33.684;151.102;2023-02-18T07:32:18;31.50;97.80
39453;DHT22;25154;-33.684;151.102;2023-02-18T07:37:21;30.40;98.60
39453;DHT22;25154;-33.684;151.102;2023-02-18T07:42:23;29.70;99.00
39453;DHT22;25154;-33.684;151.102;2023-02-18T07:47:26;29.10;99.90
39453;DHT22;25154;-33.684;151.102;2023-02-18T07:52:28;28.10;97.40
39453;DHT22;25154;-33.684;151.102;2023-02-18T07:57:30;27.20;98.40
39453;DHT22;25154;-33.684;151.102;2023-02-18T08:02:33;26.50;99.30
39453;DHT22;25154;-33.684;151.102;2023-02-18T08:07:35;25.60;99.90
39453;DHT22;25154;-33.684;151.102;2023-02-18T08:12:38;24.60;99.90
39453;DHT22;25154;-33.684;151.102;2023-02-18T08:17:40;23.20;99.90
39453;DHT22;25154;-33.684;151.102;2023-02-18T08:22:42;21.70;99.90
39453;DHT22;25154;-33.684;151.102;2023-02-18T08:27:45;20.70;99.90
39453;DHT22;25154;-33.684;151.102;2023-02-18T08:32:47;20.30;99.90
39453;DHT22;25154;-33.684;151.102;2023-02-18T08:37:50;20.20;99.90
39453;DHT22;25154;-33.684;151.102;2023-02-18T08:42:52;20.00;99.90
39453;DHT22;25154;-33.684;151.102;2023-02-18T08:47:54;19.90;99.90
39453;DHT22;25154;-33.684;151.102;2023-02-18T08:52:57;19.90;99.90
39453;DHT22;25154;-33.684;151.102;2023-02-18T08:58:04;19.90;99.90
39453;DHT22;25154;-33.684;151.102;2023-02-18T09:03:08;19.80;99.90
39453;DHT22;25154;-33.684;151.102;2023-02-18T09:08:11;19.80;99.90
39453;DHT22;25154;-33.684;151.102;2023-02-18T09:13:14;19.70;99.90
39453;DHT22;25154;-33.684;151.102;2023-02-18T09:18:16;19.70;99.90
39453;DHT22;25154;-33.684;151.102;2023-02-18T09:23:18;19.60;99.90
39453;DHT22;25154;-33.684;151.102;2023-02-18T09:28:22;19.50;99.90
39453;DHT22;25154;-33.684;151.102;2023-02-18T09:33:24;19.40;99.90
39453;DHT22;25154;-33.684;151.102;2023-02-18T09:38:27;19.50;99.90
39453;DHT22;25154;-33.684;151.102;2023-02-18T09:48:36;19.70;99.90
39453;DHT22;25154;-33.684;151.102;2023-02-18T09:53:39;19.30;99.90
39453;DHT22;25154;-33.684;151.102;2023-02-18T09:58:43;19.40;99.90
39453;DHT22;25154;-33.684;151.102;2023-02-18T10:03:47;19.70;99.90
39453;DHT22;25154;-33.684;151.102;2023-02-18T10:08:52;19.40;99.90
39453;DHT22;25154;-33.684;151.102;2023-02-18T10:13:56;19.40;99.90
39453;DHT22;25154;-33.684;151.102;2023-02-18T10:19:28;19.30;99.90
39453;DHT22;25154;-33.684;151.102;2023-02-18T10:29:50;19.50;99.90
39453;DHT22;25154;-33.684;151.102;2023-02-18T10:40:32;19.60;99.90
39453;DHT22;25154;-33.684;151.102;2023-02-18T10:50:52;19.70;99.90
39453;DHT22;25154;-33.684;151.102;2023-02-18T10:55:55;19.90;99.90
39453;DHT22;25154;-33.684;151.102;2023-02-18T11:01:14;20.00;99.90
39453;DHT22;25154;-33.684;151.102;2023-02-18T11:06:48;21.20;99.90
39453;DHT22;25154;-33.684;151.102;2023-02-18T11:11:49;20.50;99.90
39453;DHT22;25154;-33.684;151.102;2023-02-18T11:16:51;20.60;99.90
39453;DHT22;25154;-33.684;151.102;2023-02-18T11:27:26;20.70;99.90
39453;DHT22;25154;-33.684;151.102;2023-02-18T11:32:30;20.60;99.90
39453;DHT22;25154;-33.684;151.102;2023-02-18T11:37:35;21.10;99.90
39453;DHT22;25154;-33.684;151.102;2023-02-18T11:42:38;20.60;99.90
39453;DHT22;25154;-33.684;151.102;2023-02-18T11:47:41;20.60;99.90
39453;DHT22;25154;-33.684;151.102;2023-02-18T11:52:46;20.50;99.90
39453;DHT22;25154;-33.684;151.102;2023-02-18T11:57:59;20.30;99.90
39453;DHT22;25154;-33.684;151.102;2023-02-18T12:03:13;20.30;99.90
39453;DHT22;25154;-33.684;151.102;2023-02-18T12:08:57;20.30;99.90
39453;DHT22;25154;-33.684;151.102;2023-02-18T12:14:07;20.20;99.90
39453;DHT22;25154;-33.684;151.102;2023-02-18T12:24:53;20.10;99.90
39453;DHT22;25154;-33.684;151.102;2023-02-18T12:30:31;20.10;99.90
39453;DHT22;25154;-33.684;151.102;2023-02-18T12:35:51;20.00;99.90
39453;DHT22;25154;-33.684;151.102;2023-02-18T12:46:36;19.90;99.90
39453;DHT22;25154;-33.684;151.102;2023-02-18T13:03:31;19.80;99.90
39453;DHT22;25154;-33.684;151.102;2023-02-18T13:08:24;19.80;99.90
39453;DHT22;25154;-33.684;151.102;2023-02-18T13:35:17;19.80;99.90
39453;DHT22;25154;-33.684;151.102;2023-02-18T13:40:24;19.90;99.90
39453;DHT22;25154;-33.684;151.102;2023-02-18T13:45:32;20.00;99.90
39453;DHT22;25154;-33.684;151.102;2023-02-18T13:50:42;20.00;99.90
39453;DHT22;25154;-33.684;151.102;2023-02-18T13:56:04;20.00;99.90
39453;DHT22;25154;-33.684;151.102;2023-02-18T14:11:53;19.90;99.90
39453;DHT22;25154;-33.684;151.102;2023-02-18T14:27:42;19.70;99.90
39453;DHT22;25154;-33.684;151.102;2023-02-18T14:32:46;19.70;99.90
39453;DHT22;25154;-33.684;151.102;2023-02-18T14:43:55;19.60;99.90
39453;DHT22;25154;-33.684;151.102;2023-02-18T14:49:35;19.60;99.90
39453;DHT22;25154;-33.684;151.102;2023-02-18T14:54:39;19.50;99.90
39453;DHT22;25154;-33.684;151.102;2023-02-18T14:59:43;19.40;99.90
39453;DHT22;25154;-33.684;151.102;2023-02-18T15:04:46;19.40;99.90
39453;DHT22;25154;-33.684;151.102;2023-02-18T15:09:53;19.50;99.90
39453;DHT22;25154;-33.684;151.102;2023-02-18T15:15:01;19.50;99.90
39453;DHT22;25154;-33.684;151.102;2023-02-18T15:20:07;19.50;99.90
39453;DHT22;25154;-33.684;151.102;2023-02-18T15:25:16;19.40;99.90
39453;DHT22;25154;-33.684;151.102;2023-02-18T15:30:29;19.40;99.90
39453;DHT22;25154;-33.684;151.102;2023-02-18T15:35:33;19.40;99.90
39453;DHT22;25154;-33.684;151.102;2023-02-18T15:40:37;19.50;99.90
39453;DHT22;25154;-33.684;151.102;2023-02-18T15:45:44;19.40;99.90
39453;DHT22;25154;-33.684;151.102;2023-02-18T15:50:52;19.40;99.90
39453;DHT22;25154;-33.684;151.102;2023-02-18T15:55:54;19.50;99.90
39453;DHT22;25154;-33.684;151.102;2023-02-18T16:00:59;19.40;99.90
39453;DHT22;25154;-33.684;151.102;2023-02-18T16:06:22;20.80;99.90
39453;DHT22;25154;-33.684;151.102;2023-02-18T16:11:30;19.30;99.90
39453;DHT22;25154;-33.684;151.102;2023-02-18T16:16:37;19.40;99.90
39453;DHT22;25154;-33.684;151.102;2023-02-18T16:21:44;19.30;99.90
39453;DHT22;25154;-33.684;151.102;2023-02-18T16:26:51;19.20;99.90
39453;DHT22;25154;-33.684;151.102;2023-02-18T16:31:54;19.20;99.90
39453;DHT22;25154;-33.684;151.102;2023-02-18T16:36:58;19.10;99.90
39453;DHT22;25154;-33.684;151.102;2023-02-18T16:42:19;19.10;99.90
39453;DHT22;25154;-33.684;151.102;2023-02-18T16:47:21;19.10;99.90
39453;DHT22;25154;-33.684;151.102;2023-02-18T16:52:24;19.00;99.90
39453;DHT22;25154;-33.684;151.102;2023-02-18T16:57:27;19.10;99.90
39453;DHT22;25154;-33.684;151.102;2023-02-18T17:02:30;19.10;99.90
39453;DHT22;25154;-33.684;151.102;2023-02-18T17:07:33;19.00;99.90
39453;DHT22;25154;-33.684;151.102;2023-02-18T17:12:37;19.00;99.90
39453;DHT22;25154;-33.684;151.102;2023-02-18T17:17:43;18.90;99.90
39453;DHT22;25154;-33.684;151.102;2023-02-18T17:22:46;19.00;99.90
39453;DHT22;25154;-33.684;151.102;2023-02-18T17:27:50;18.90;99.90
39453;DHT22;25154;-33.684;151.102;2023-02-18T17:32:53;18.90;99.90
39453;DHT22;25154;-33.684;151.102;2023-02-18T17:37:56;18.90;99.90
39453;DHT22;25154;-33.684;151.102;2023-02-18T17:42:59;19.00;99.90
39453;DHT22;25154;-33.684;151.102;2023-02-18T17:48:02;19.00;99.90
39453;DHT22;25154;-33.684;151.102;2023-02-18T17:53:05;19.00;99.90
39453;DHT22;25154;-33.684;151.102;2023-02-18T17:58:09;19.00;99.90
39453;DHT22;25154;-33.684;151.102;2023-02-18T18:03:13;19.00;99.90
39453;DHT22;25154;-33.684;151.102;2023-02-18T18:08:16;19.00;99.90
39453;DHT22;25154;-33.684;151.102;2023-02-18T18:13:27;18.90;99.90
39453;DHT22;25154;-33.684;151.102;2023-02-18T18:18:30;18.90;99.90
39453;DHT22;25154;-33.684;151.102;2023-02-18T18:23:34;18.90;99.90
39453;DHT22;25154;-33.684;151.102;2023-02-18T18:28:37;18.90;99.90
39453;DHT22;25154;-33.684;151.102;2023-02-18T18:33:40;18.90;99.90
39453;DHT22;25154;-33.684;151.102;2023-02-18T18:38:43;18.90;99.90
39453;DHT22;25154;-33.684;151.102;2023-02-18T18:43:46;18.80;99.90
39453;DHT22;25154;-33.684;151.102;2023-02-18T18:48:50;18.70;99.90
39453;DHT22;25154;-33.684;151.102;2023-02-18T18:53:53;18.70;99.90
39453;DHT22;25154;-33.684;151.102;2023-02-18T18:58:56;18.70;99.90
39453;DHT22;25154;-33.684;151.102;2023-02-18T19:03:59;18.60;99.90
39453;DHT22;25154;-33.684;151.102;2023-02-18T19:09:01;18.50;99.90
39453;DHT22;25154;-33.684;151.102;2023-02-18T19:14:04;18.50;99.90
39453;DHT22;25154;-33.684;151.102;2023-02-18T19:19:09;18.40;99.90
39453;DHT22;25154;-33.684;151.102;2023-02-18T19:24:12;18.40;99.90
39453;DHT22;25154;-33.684;151.102;2023-02-18T19:29:14;18.20;99.90
39453;DHT22;25154;-33.684;151.102;2023-02-18T19:34:20;18.20;99.90
39453;DHT22;25154;-33.684;151.102;2023-02-18T19:39:23;18.10;99.90
39453;DHT22;25154;-33.684;151.102;2023-02-18T19:44:30;18.00;99.90
39453;DHT22;25154;-33.684;151.102;2023-02-18T19:49:32;18.00;99.90
39453;DHT22;25154;-33.684;151.102;2023-02-18T19:54:36;18.00;99.90
39453;DHT22;25154;-33.684;151.102;2023-02-18T19:59:39;17.90;99.90
39453;DHT22;25154;-33.684;151.102;2023-02-18T20:04:43;17.90;99.90
39453;DHT22;25154;-33.684;151.102;2023-02-18T20:09:46;17.90;99.90
39453;DHT22;25154;-33.684;151.102;2023-02-18T20:14:50;18.00;99.90
39453;DHT22;25154;-33.684;151.102;2023-02-18T20:19:52;18.00;99.90
39453;DHT22;25154;-33.684;151.102;2023-02-18T20:24:55;18.00;99.90
39453;DHT22;25154;-33.684;151.102;2023-02-18T20:29:57;18.00;99.90
39453;DHT22;25154;-33.684;151.102;2023-02-18T20:35:00;18.10;99.90
39453;DHT22;25154;-33.684;151.102;2023-02-18T20:40:03;18.10;99.90
39453;DHT22;25154;-33.684;151.102;2023-02-18T20:45:05;18.20;99.90
39453;DHT22;25154;-33.684;151.102;2023-02-18T20:50:08;18.40;99.90
39453;DHT22;25154;-33.684;151.102;2023-02-18T20:55:10;18.60;99.90
39453;DHT22;25154;-33.684;151.102;2023-02-18T21:00:15;18.80;99.90
39453;DHT22;25154;-33.684;151.102;2023-02-18T21:05:18;19.10;99.90
39453;DHT22;25154;-33.684;151.102;2023-02-18T21:10:23;20.60;99.90
39453;DHT22;25154;-33.684;151.102;2023-02-18T21:15:26;19.40;99.90
39453;DHT22;25154;-33.684;151.102;2023-02-18T21:20:29;19.50;99.90
39453;DHT22;25154;-33.684;151.102;2023-02-18T21:25:32;19.70;99.90
39453;DHT22;25154;-33.684;151.102;2023-02-18T21:30:41;19.80;99.90
39453;DHT22;25154;-33.684;151.102;2023-02-18T21:35:45;20.10;99.90
39453;DHT22;25154;-33.684;151.102;2023-02-18T21:40:49;20.30;99.90
39453;DHT22;25154;-33.684;151.102;2023-02-18T21:45:52;20.40;99.90
39453;DHT22;25154;-33.684;151.102;2023-02-18T21:50:59;20.60;99.90
39453;DHT22;25154;-33.684;151.102;2023-02-18T21:56:15;20.70;99.90
39453;DHT22;25154;-33.684;151.102;2023-02-18T22:01:19;21.50;99.90
39453;DHT22;25154;-33.684;151.102;2023-02-18T22:06:23;21.20;99.90
39453;DHT22;25154;-33.684;151.102;2023-02-18T22:11:27;21.60;99.90
39453;DHT22;25154;-33.684;151.102;2023-02-18T22:16:31;21.80;99.90
39453;DHT22;25154;-33.684;151.102;2023-02-18T22:21:35;22.00;99.90
39453;DHT22;25154;-33.684;151.102;2023-02-18T22:26:40;22.10;99.90
39453;DHT22;25154;-33.684;151.102;2023-02-18T22:31:44;22.40;99.90
39453;DHT22;25154;-33.684;151.102;2023-02-18T22:36:48;22.80;99.90
39453;DHT22;25154;-33.684;151.102;2023-02-18T22:41:51;22.80;99.90
39453;DHT22;25154;-33.684;151.102;2023-02-18T22:46:57;22.90;99.90
39453;DHT22;25154;-33.684;151.102;2023-02-18T22:52:00;23.00;99.90
39453;DHT22;25154;-33.684;151.102;2023-02-18T22:57:03;23.00;99.90
39453;DHT22;25154;-33.684;151.102;2023-02-18T23:02:05;23.20;99.90
39453;DHT22;25154;-33.684;151.102;2023-02-18T23:07:11;23.40;99.90
39453;DHT22;25154;-33.684;151.102;2023-02-18T23:12:14;23.60;99.90
39453;DHT22;25154;-33.684;151.102;2023-02-18T23:17:17;23.90;99.90
39453;DHT22;25154;-33.684;151.102;2023-02-18T23:22:29;24.60;99.90
39453;DHT22;25154;-33.684;151.102;2023-02-18T23:27:37;25.10;99.90
39453;DHT22;25154;-33.684;151.102;2023-02-18T23:32:44;25.00;99.90
39453;DHT22;25154;-33.684;151.102;2023-02-18T23:37:46;25.20;99.90
39453;DHT22;25154;-33.684;151.102;2023-02-18T23:43:04;25.60;99.90
39453;DHT22;25154;-33.684;151.102;2023-02-18T23:48:06;25.80;99.90
39453;DHT22;25154;-33.684;151.102;2023-02-18T23:53:08;25.70;99.90
39453;DHT22;25154;-33.684;151.102;2023-02-18T23:58:11;25.10;99.90
